Time,TemperatureF,DewpointF,PressureIn,WindDirection,WindDirectionDegrees,WindSpeedMPH,WindSpeedGustMPH,Humidity,HourlyPrecipIn,Conditions,Clouds,dailyrainin,SoftwareType,DateUTC
2013-05-19 00:05:00,47.7,46.0,30.30,NNW,340,0.0,2.0,93,0.00,,,0.00,weatherlink.com 1.10,2013-05-19 04:05:00,
2013-05-19 00:20:00,47.9,46.0,30.29,NNW,342,0.0,0.0,93,0.00,,,0.00,weatherlink.com 1.10,2013-05-19 04:20:00,
2013-05-19 00:36:00,48.0,46.0,30.29,NE,53,0.0,0.0,93,0.00,,,0.00,weatherlink.com 1.10,2013-05-19 04:36:00,
2013-05-19 00:51:00,48.1,46.0,30.29,NE,53,0.0,0.0,92,0.00,,,0.00,weatherlink.com 1.10,2013-05-19 04:51:00,
2013-05-19 01:21:00,48.3,46.0,30.28,NNE,13,0.0,0.0,92,0.00,,,0.00,weatherlink.com 1.10,2013-05-19 05:21:00,
2013-05-19 01:36:00,48.4,46.0,30.28,NE,38,0.0,0.0,92,0.00,,,0.00,weatherlink.com 1.10,2013-05-19 05:36:00,
2013-05-19 01:52:00,48.5,46.0,30.28,NE,44,1.0,3.0,92,0.00,,,0.00,weatherlink.com 1.10,2013-05-19 05:52:00,
2013-05-19 02:07:00,48.6,46.0,30.28,NE,37,0.0,4.0,92,0.00,,,0.00,weatherlink.com 1.10,2013-05-19 06:07:00,
2013-05-19 02:22:00,48.5,46.0,30.28,NNE,31,4.0,4.0,91,0.00,,,0.00,weatherlink.com 1.10,2013-05-19 06:22:00,
2013-05-19 02:36:00,48.5,46.0,30.27,NE,53,0.0,0.0,91,0.00,,,0.00,weatherlink.com 1.10,2013-05-19 06:36:00,
2013-05-19 02:52:00,48.5,46.0,30.28,NE,46,1.0,3.0,91,0.00,,,0.00,weatherlink.com 1.10,2013-05-19 06:52:00,
2013-05-19 03:21:00,48.4,46.0,30.28,NE,41,0.0,2.0,91,0.00,,,0.00,weatherlink.com 1.10,2013-05-19 07:21:00,
2013-05-19 03:36:00,48.4,46.0,30.28,NNE,15,0.0,2.0,91,0.00,,,0.00,weatherlink.com 1.10,2013-05-19 07:36:00,
2013-05-19 03:51:00,48.4,46.0,30.29,NE,50,0.0,2.0,91,0.00,,,0.00,weatherlink.com 1.10,2013-05-19 07:51:00,
2013-05-19 04:06:00,48.4,46.0,30.29,ENE,67,1.0,2.0,91,0.00,,,0.00,weatherlink.com 1.10,2013-05-19 08:06:00,
2013-05-19 04:21:00,48.3,46.0,30.29,NE,56,1.0,1.0,92,0.00,,,0.00,weatherlink.com 1.10,2013-05-19 08:21:00,
2013-05-19 04:36:00,47.9,46.0,30.29,NE,44,0.0,2.0,94,0.00,,,0.00,weatherlink.com 1.10,2013-05-19 08:36:00,
2013-05-19 04:52:00,47.8,46.0,30.30,ENE,58,0.0,2.0,94,0.00,,,0.00,weatherlink.com 1.10,2013-05-19 08:52:00,
2013-05-19 05:07:00,47.7,46.0,30.30,NE,40,0.0,2.0,95,0.00,,,0.00,weatherlink.com 1.10,2013-05-19 09:07:00,
2013-05-19 05:22:00,47.6,46.0,30.30,NNE,26,0.0,1.0,95,0.00,,,0.00,weatherlink.com 1.10,2013-05-19 09:22:00,
2013-05-19 05:37:00,47.7,46.0,30.31,NNE,32,0.0,3.0,95,0.00,,,0.00,weatherlink.com 1.10,2013-05-19 09:37:00,
2013-05-19 05:54:00,47.8,47.0,30.31,ENE,59,2.0,4.0,95,0.00,,,0.00,weatherlink.com 1.10,2013-05-19 09:54:00,
2013-05-19 06:07:00,48.0,47.0,30.31,NE,51,0.0,3.0,95,0.00,,,0.00,weatherlink.com 1.10,2013-05-19 10:07:00,
2013-05-19 06:22:00,48.2,47.0,30.31,NNE,25,1.0,2.0,95,0.00,,,0.00,weatherlink.com 1.10,2013-05-19 10:22:00,
2013-05-19 06:37:00,48.5,47.0,30.31,ENE,58,0.0,2.0,95,0.00,,,0.00,weatherlink.com 1.10,2013-05-19 10:37:00,
2013-05-19 06:52:00,48.6,47.0,30.32,NE,36,0.0,2.0,94,0.00,,,0.00,weatherlink.com 1.10,2013-05-19 10:52:00,
2013-05-19 07:22:00,48.9,47.0,30.32,NE,45,2.0,5.0,92,0.00,,,0.00,weatherlink.com 1.10,2013-05-19 11:22:00,
2013-05-19 07:37:00,49.2,47.0,30.33,East,84,1.0,5.0,92,0.00,,,0.00,weatherlink.com 1.10,2013-05-19 11:37:00,
2013-05-19 07:52:00,49.5,47.0,30.32,East,84,1.0,3.0,92,0.00,,,0.00,weatherlink.com 1.10,2013-05-19 11:52:00,
2013-05-19 08:08:00,50.1,47.0,30.32,NE,38,0.0,3.0,90,0.00,,,0.00,weatherlink.com 1.10,2013-05-19 12:08:00,
2013-05-19 08:22:00,50.3,48.0,30.33,NE,50,2.0,4.0,90,0.00,,,0.00,weatherlink.com 1.10,2013-05-19 12:22:00,
2013-05-19 08:37:00,50.5,47.0,30.33,NE,42,1.0,4.0,89,0.00,,,0.00,weatherlink.com 1.10,2013-05-19 12:37:00,
2013-05-19 08:52:00,50.8,47.0,30.33,ENE,67,1.0,3.0,88,0.00,,,0.00,weatherlink.com 1.10,2013-05-19 12:52:00,
2013-05-19 09:07:00,51.2,48.0,30.34,NE,48,1.0,2.0,89,0.00,,,0.00,weatherlink.com 1.10,2013-05-19 13:07:00,
2013-05-19 09:23:00,51.4,48.0,30.34,ENE,75,1.0,3.0,88,0.00,,,0.00,weatherlink.com 1.10,2013-05-19 13:23:00,
2013-05-19 09:40:00,51.5,48.0,30.34,SE,134,1.0,3.0,89,0.00,,,0.00,weatherlink.com 1.10,2013-05-19 13:40:00,
2013-05-19 09:53:00,51.8,48.0,30.35,East,86,0.0,3.0,87,0.00,,,0.00,weatherlink.com 1.10,2013-05-19 13:53:00,
2013-05-19 10:24:00,52.5,49.0,30.35,ENE,67,1.0,4.0,86,0.00,,,0.00,weatherlink.com 1.10,2013-05-19 14:24:00,
2013-05-19 10:38:00,53.0,49.0,30.35,SE,128,1.0,4.0,86,0.00,,,0.00,weatherlink.com 1.10,2013-05-19 14:38:00,
2013-05-19 10:53:00,53.3,49.0,30.34,ESE,119,2.0,3.0,84,0.00,,,0.00,weatherlink.com 1.10,2013-05-19 14:53:00,
2013-05-19 11:09:00,54.4,50.0,30.34,ESE,105,1.0,2.0,84,0.00,,,0.00,weatherlink.com 1.10,2013-05-19 15:09:00,
2013-05-19 11:23:00,54.0,49.0,30.34,WNW,297,0.0,3.0,82,0.00,,,0.00,weatherlink.com 1.10,2013-05-19 15:23:00,
2013-05-19 11:38:00,54.8,50.0,30.34,ESE,105,2.0,4.0,83,0.00,,,0.00,weatherlink.com 1.10,2013-05-19 15:38:00,
2013-05-19 11:53:00,55.5,50.0,30.34,WSW,238,0.0,4.0,82,0.00,,,0.00,weatherlink.com 1.10,2013-05-19 15:53:00,
2013-05-19 12:11:00,56.4,50.0,30.34,NE,41,0.0,3.0,79,0.00,,,0.00,weatherlink.com 1.10,2013-05-19 16:11:00,
2013-05-19 12:23:00,56.4,51.0,30.34,WNW,299,2.0,3.0,81,0.00,,,0.00,weatherlink.com 1.10,2013-05-19 16:23:00,
2013-05-19 12:38:00,56.3,50.0,30.33,NNE,15,2.0,5.0,78,0.00,,,0.00,weatherlink.com 1.10,2013-05-19 16:38:00,
2013-05-19 12:53:00,57.7,51.0,30.32,SE,124,2.0,4.0,77,0.00,,,0.00,weatherlink.com 1.10,2013-05-19 16:53:00,
2013-05-19 13:08:00,58.3,51.0,30.32,South,170,0.0,6.0,77,0.00,,,0.00,weatherlink.com 1.10,2013-05-19 17:08:00,
2013-05-19 13:23:00,59.2,51.0,30.31,SE,138,1.0,5.0,75,0.00,,,0.00,weatherlink.com 1.10,2013-05-19 17:23:00,
2013-05-19 13:39:00,61.3,53.0,30.30,SE,138,4.0,8.0,74,0.00,,,0.00,weatherlink.com 1.10,2013-05-19 17:39:00,
2013-05-19 13:54:00,61.1,52.0,30.30,South,188,0.0,5.0,71,0.00,,,0.00,weatherlink.com 1.10,2013-05-19 17:54:00,
2013-05-19 14:09:00,62.1,53.0,30.29,ENE,65,1.0,4.0,71,0.00,,,0.00,weatherlink.com 1.10,2013-05-19 18:09:00,
2013-05-19 14:24:00,61.6,52.0,30.29,SSW,201,8.0,8.0,70,0.00,,,0.00,weatherlink.com 1.10,2013-05-19 18:24:00,
2013-05-19 14:39:00,61.6,52.0,30.28,ESE,117,3.0,9.0,70,0.00,,,0.00,weatherlink.com 1.10,2013-05-19 18:39:00,
2013-05-19 14:54:00,60.2,51.0,30.28,ESE,119,5.0,9.0,72,0.00,,,0.00,weatherlink.com 1.10,2013-05-19 18:54:00,
2013-05-19 15:09:00,58.6,50.0,30.28,SE,132,3.0,10.0,74,0.00,,,0.00,weatherlink.com 1.10,2013-05-19 19:09:00,
2013-05-19 15:24:00,57.1,50.0,30.27,SE,140,5.0,10.0,76,0.00,,,0.00,weatherlink.com 1.10,2013-05-19 19:24:00,
2013-05-19 15:39:00,56.5,49.0,30.28,ESE,121,1.0,10.0,77,0.00,,,0.00,weatherlink.com 1.10,2013-05-19 19:39:00,
2013-05-19 15:54:00,55.7,49.0,30.27,SSW,198,5.0,8.0,79,0.00,,,0.00,weatherlink.com 1.10,2013-05-19 19:54:00,
2013-05-19 16:09:00,55.1,49.0,30.27,ESE,117,5.0,7.0,81,0.00,,,0.00,weatherlink.com 1.10,2013-05-19 20:09:00,
2013-05-19 16:24:00,54.3,49.0,30.27,ESE,122,4.0,8.0,81,0.00,,,0.00,weatherlink.com 1.10,2013-05-19 20:24:00,
2013-05-19 16:39:00,53.9,49.0,30.27,SE,136,1.0,9.0,82,0.00,,,0.00,weatherlink.com 1.10,2013-05-19 20:39:00,
2013-05-19 16:54:00,53.4,48.0,30.27,SE,146,3.0,8.0,83,0.00,,,0.00,weatherlink.com 1.10,2013-05-19 20:54:00,
2013-05-19 17:09:00,52.8,48.0,30.27,SSE,151,6.0,8.0,84,0.00,,,0.00,weatherlink.com 1.10,2013-05-19 21:09:00,
2013-05-19 17:24:00,52.0,48.0,30.27,SE,146,4.0,9.0,85,0.00,,,0.00,weatherlink.com 1.10,2013-05-19 21:24:00,
2013-05-19 17:39:00,51.2,48.0,30.27,SSE,155,5.0,10.0,87,0.00,,,0.00,weatherlink.com 1.10,2013-05-19 21:39:00,
2013-05-19 17:54:00,50.6,48.0,30.27,South,171,3.0,7.0,89,0.00,,,0.00,weatherlink.com 1.10,2013-05-19 21:54:00,
2013-05-19 18:10:00,50.4,48.0,30.27,SE,131,3.0,9.0,90,0.00,,,0.00,weatherlink.com 1.10,2013-05-19 22:10:00,
2013-05-19 18:25:00,50.3,48.0,30.26,South,169,2.0,6.0,90,0.00,,,0.00,weatherlink.com 1.10,2013-05-19 22:25:00,
2013-05-19 18:39:00,50.3,48.0,30.26,SE,124,2.0,6.0,91,0.00,,,0.00,weatherlink.com 1.10,2013-05-19 22:39:00,
2013-05-19 18:54:00,50.1,48.0,30.25,SSE,160,1.0,6.0,92,0.00,,,0.00,weatherlink.com 1.10,2013-05-19 22:54:00,
2013-05-19 19:09:00,49.8,48.0,30.25,ESE,122,3.0,7.0,92,0.00,,,0.00,weatherlink.com 1.10,2013-05-19 23:09:00,
2013-05-19 19:39:00,49.7,48.0,30.25,ENE,65,0.0,2.0,93,0.00,,,0.00,weatherlink.com 1.10,2013-05-19 23:39:00,
2013-05-19 19:55:00,49.6,48.0,30.25,SSE,153,1.0,3.0,94,0.00,,,0.00,weatherlink.com 1.10,2013-05-19 23:55:00,
2013-05-19 20:09:00,49.6,48.0,30.25,SSE,148,0.0,2.0,94,0.00,,,0.00,weatherlink.com 1.10,2013-05-20 00:09:00,
2013-05-19 20:24:00,49.5,48.0,30.25,SE,143,1.0,2.0,94,0.00,,,0.00,weatherlink.com 1.10,2013-05-20 00:24:00,
2013-05-19 20:40:00,49.5,48.0,30.25,SE,135,1.0,2.0,94,0.00,,,0.00,weatherlink.com 1.10,2013-05-20 00:40:00,
2013-05-19 20:56:00,49.4,48.0,30.26,ESE,122,0.0,1.0,94,0.00,,,0.00,weatherlink.com 1.10,2013-05-20 00:56:00,
2013-05-19 21:12:00,49.4,48.0,30.26,SSW,210,0.0,1.0,95,0.00,,,0.00,weatherlink.com 1.10,2013-05-20 01:12:00,
2013-05-19 21:25:00,49.4,48.0,30.25,SSE,147,1.0,1.0,95,0.00,,,0.00,weatherlink.com 1.10,2013-05-20 01:25:00,
2013-05-19 21:40:00,49.3,48.0,30.25,SE,125,0.0,1.0,95,0.01,,,0.01,weatherlink.com 1.10,2013-05-20 01:40:00,
2013-05-19 22:10:00,49.3,48.0,30.25,ESE,115,1.0,1.0,95,0.01,,,0.01,weatherlink.com 1.10,2013-05-20 02:10:00,
2013-05-19 22:25:00,49.3,48.0,30.25,SE,130,0.0,1.0,95,0.02,,,0.02,weatherlink.com 1.10,2013-05-20 02:25:00,
2013-05-19 22:55:00,49.2,48.0,30.24,SE,136,1.0,1.0,95,0.02,,,0.03,weatherlink.com 1.10,2013-05-20 02:55:00,
2013-05-19 23:25:00,49.1,48.0,30.23,ESE,117,2.0,2.0,96,0.02,,,0.04,weatherlink.com 1.10,2013-05-20 03:25:00,
2013-05-19 23:40:00,49.2,48.0,30.22,SE,134,1.0,2.0,96,0.03,,,0.05,weatherlink.com 1.10,2013-05-20 03:40:00,
2013-05-19 23:55:00,49.2,48.0,30.21,ESE,120,0.0,1.0,96,0.02,,,0.05,weatherlink.com 1.10,2013-05-20 03:55:00,